Time;durP1;ratioP1;P1;durP2;ratioP2;P2;SDS_P1;SDS_P2;PMS_P1;PMS_P2;Temp;Humidity;BMP_temperature;BMP_pressure;BME280_temperature;BME280_humidity;BME280_pressure;Samples;Min_cycle;Max_cycle;Signal;HPM_P1;HPM_P2
2023/08/12 00:01:51;;;;;;;6.25;3.42;;;21.90;70.90;;;;;;5001743;28;20042;-77
2023/08/12 00:04:16;;;;;;;4.05;2.53;;;21.90;71.30;;;;;;5017954;28;20049;-77
2023/08/12 00:06:43;;;;;;;3.88;3.00;;;21.90;71.40;;;;;;5017692;28;20045;-77
2023/08/12 00:09:11;;;;;;;3.50;2.03;;;21.80;71.40;;;;;;5001498;28;20100;-77
2023/08/12 00:11:37;;;;;;;4.47;2.63;;;21.80;71.30;;;;;;5018102;28;20052;-78
2023/08/12 00:14:04;;;;;;;5.25;3.03;;;21.80;71.20;;;;;;5001361;28;20041;-77
2023/08/12 00:16:30;;;;;;;5.05;3.28;;;21.70;71.60;;;;;;5001585;28;20132;-77
2023/08/12 00:18:55;;;;;;;6.05;3.65;;;21.70;72.00;;;;;;5017502;28;20073;-77
2023/08/12 00:21:21;;;;;;;4.90;3.80;;;21.70;72.20;;;;;;5017350;28;20140;-77
2023/08/12 00:23:49;;;;;;;5.65;4.03;;;21.70;72.60;;;;;;5000970;28;20104;-77
2023/08/12 00:26:15;;;;;;;4.88;3.50;;;21.60;72.90;;;;;;5016172;28;20041;-77
2023/08/12 00:28:41;;;;;;;6.07;3.92;;;21.50;73.00;;;;;;5001315;28;20564;-77
2023/08/12 00:31:07;;;;;;;7.45;3.88;;;21.50;73.10;;;;;;5017428;28;20400;-77
2023/08/12 00:33:33;;;;;;;4.63;3.42;;;21.50;73.30;;;;;;5017360;28;20076;-77
2023/08/12 00:35:58;;;;;;;3.90;3.05;;;21.40;73.30;;;;;;5017267;28;20072;-77
2023/08/12 00:38:24;;;;;;;4.68;2.97;;;21.40;73.10;;;;;;5000777;28;20077;-77
2023/08/12 00:40:50;;;;;;;3.30;2.50;;;21.30;73.00;;;;;;4984846;28;20103;-77
2023/08/12 00:43:15;;;;;;;3.15;2.83;;;21.30;73.00;;;;;;4984668;28;20400;-77
2023/08/12 00:45:43;;;;;;;3.83;2.90;;;21.30;72.90;;;;;;5017437;28;20095;-77
2023/08/12 00:48:09;;;;;;;9.57;6.43;;;21.30;72.80;;;;;;5001016;28;20103;-77
2023/08/12 00:50:37;;;;;;;11.43;5.55;;;21.30;73.60;;;;;;5000766;28;20046;-76
2023/08/12 00:53:05;;;;;;;7.07;4.35;;;21.20;74.10;;;;;;5016613;28;20041;-76
2023/08/12 00:55:32;;;;;;;6.40;4.13;;;21.20;74.20;;;;;;5000215;28;20044;-76
2023/08/12 00:57:58;;;;;;;7.35;5.00;;;21.20;74.30;;;;;;5000195;28;20038;-76
2023/08/12 01:00:24;;;;;;;9.35;5.68;;;21.10;74.50;;;;;;4984379;28;20045;-75
2023/08/12 01:02:51;;;;;;;4.38;3.55;;;21.10;74.90;;;;;;5016738;28;20599;-75
2023/08/12 01:05:18;;;;;;;7.55;5.30;;;21.10;75.10;;;;;;5016351;28;20041;-76
2023/08/12 01:07:45;;;;;;;8.00;5.35;;;21.00;75.30;;;;;;5016572;28;20064;-76
2023/08/12 01:10:14;;;;;;;9.02;6.35;;;21.00;75.50;;;;;;4984033;28;20041;-76
2023/08/12 01:13:06;;;;;;;9.77;6.38;;;21.00;75.80;;;;;;5016289;28;20037;-76
2023/08/12 01:15:33;;;;;;;6.65;5.65;;;20.90;75.90;;;;;;5016395;28;20064;-76
2023/08/12 01:18:01;;;;;;;4.75;3.47;;;20.90;76.20;;;;;;5000214;28;20439;-76
2023/08/12 01:20:27;;;;;;;5.45;4.85;;;20.90;76.20;;;;;;5016150;28;20075;-75
2023/08/12 01:22:58;;;;;;;7.40;5.63;;;20.80;76.00;;;;;;4999751;28;20508;-76
2023/08/12 01:25:27;;;;;;;8.35;6.93;;;20.80;76.10;;;;;;4999940;28;20092;-76
2023/08/12 01:27:53;;;;;;;10.70;6.50;;;20.80;76.30;;;;;;4999705;28;20083;-76
2023/08/12 01:30:20;;;;;;;11.07;7.70;;;20.70;76.40;;;;;;4999811;28;20034;-76
2023/08/12 01:32:57;;;;;;;9.40;5.93;;;20.70;76.50;;;;;;4999863;28;20049;-75
2023/08/12 01:35:35;;;;;;;9.50;6.20;;;20.70;76.60;;;;;;5016152;28;20127;-76
2023/08/12 01:38:04;;;;;;;9.07;5.97;;;20.70;76.70;;;;;;5015870;28;20080;-76
2023/08/12 01:40:31;;;;;;;6.63;5.32;;;20.60;76.60;;;;;;4999329;28;20037;-75
2023/08/12 01:42:56;;;;;;;6.65;3.85;;;20.60;76.50;;;;;;5015728;28;20124;-76
2023/08/12 01:45:23;;;;;;;4.72;3.08;;;20.60;76.20;;;;;;4999484;28;20156;-76
2023/08/12 01:47:50;;;;;;;4.18;2.67;;;20.60;75.80;;;;;;4999312;28;20128;-76
2023/08/12 01:50:17;;;;;;;6.70;5.32;;;20.60;75.50;;;;;;4983422;28;20041;-76
2023/08/12 01:52:42;;;;;;;7.03;4.50;;;20.60;75.50;;;;;;4999638;28;20045;-76
2023/08/12 01:55:08;;;;;;;4.53;3.70;;;20.60;75.50;;;;;;4999246;28;20468;-76
2023/08/12 01:57:34;;;;;;;5.88;4.03;;;20.60;75.40;;;;;;4982949;28;20041;-76
2023/08/12 02:00:01;;;;;;;3.63;2.85;;;20.60;75.60;;;;;;5015759;28;20038;-76
2023/08/12 02:02:27;;;;;;;6.20;4.28;;;20.60;74.90;;;;;;4999349;28;20046;-75
2023/08/12 02:04:53;;;;;;;4.65;3.03;;;20.60;75.10;;;;;;4999151;28;20436;-76
2023/08/12 02:07:18;;;;;;;4.97;4.47;;;20.60;74.90;;;;;;5015417;28;20037;-76
2023/08/12 02:09:44;;;;;;;6.07;5.13;;;20.60;74.70;;;;;;5015493;28;20037;-76
2023/08/12 02:12:10;;;;;;;3.90;3.42;;;20.60;74.90;;;;;;4999284;28;20041;-76
2023/08/12 02:14:36;;;;;;;9.55;6.70;;;20.60;74.80;;;;;;5015280;28;20499;-76
2023/08/12 02:17:05;;;;;;;10.02;7.13;;;20.60;75.10;;;;;;4998782;28;20045;-76
2023/08/12 02:19:32;;;;;;;9.25;6.78;;;20.70;75.50;;;;;;4999326;28;20052;-76
2023/08/12 02:21:58;;;;;;;10.35;7.53;;;20.60;75.70;;;;;;5015283;28;20133;-76
2023/08/12 02:24:24;;;;;;;7.75;6.53;;;20.60;76.40;;;;;;5015349;28;20045;-76
2023/08/12 02:26:50;;;;;;;8.73;7.15;;;20.60;76.20;;;;;;4982569;28;20480;-76
2023/08/12 02:29:15;;;;;;;10.30;7.72;;;20.60;76.30;;;;;;4998718;28;20040;-75
2023/08/12 02:31:41;;;;;;;10.90;7.90;;;20.60;76.50;;;;;;5015350;28;20038;-76
2023/08/12 02:34:07;;;;;;;9.20;7.82;;;20.50;76.60;;;;;;5014987;28;20507;-76
2023/08/12 02:36:33;;;;;;;11.50;8.82;;;20.50;76.90;;;;;;5015180;28;20068;-76
2023/08/12 02:38:58;;;;;;;10.25;8.00;;;20.40;77.10;;;;;;4966393;28;20045;-76
2023/08/12 02:41:24;;;;;;;10.95;7.85;;;20.40;77.30;;;;;;4998501;28;20420;-76
2023/08/12 02:43:50;;;;;;;11.57;8.52;;;20.40;77.40;;;;;;5014878;28;20068;-76
2023/08/12 02:46:15;;;;;;;8.68;7.72;;;20.40;77.80;;;;;;5015040;28;20084;-76
2023/08/12 02:48:42;;;;;;;11.55;8.63;;;20.30;78.00;;;;;;4984331;28;20033;-76
2023/08/12 02:51:08;;;;;;;9.65;7.75;;;20.30;78.30;;;;;;5018835;28;20044;-76
2023/08/12 02:53:34;;;;;;;10.00;8.20;;;20.30;78.50;;;;;;5002486;28;20120;-76
2023/08/12 02:55:59;;;;;;;11.30;8.57;;;20.30;78.80;;;;;;5002394;28;20128;-76
2023/08/12 02:58:25;;;;;;;10.05;8.23;;;20.20;79.10;;;;;;5002422;28;20076;-76
2023/08/12 03:00:51;;;;;;;8.45;6.43;;;20.20;79.20;;;;;;5002422;28;20041;-76
2023/08/12 03:03:17;;;;;;;5.30;4.72;;;20.20;79.20;;;;;;5002488;28;20132;-76
2023/08/12 03:05:48;;;;;;;9.10;7.57;;;20.20;79.00;;;;;;5002295;28;20113;-76
2023/08/12 03:08:14;;;;;;;10.10;7.05;;;20.20;78.90;;;;;;5002520;28;20366;-76
2023/08/12 03:10:40;;;;;;;8.48;6.05;;;20.10;78.80;;;;;;5018611;28;20048;-76
2023/08/12 03:13:06;;;;;;;10.02;6.93;;;20.20;78.90;;;;;;5002096;28;20033;-76
2023/08/12 03:15:32;;;;;;;6.65;5.68;;;20.20;79.00;;;;;;5018451;28;20045;-76
2023/08/12 03:17:58;;;;;;;7.70;6.68;;;20.20;79.00;;;;;;4985730;28;20040;-76
2023/08/12 03:20:23;;;;;;;12.02;8.80;;;20.20;79.10;;;;;;5002089;28;20073;-76
2023/08/12 03:22:49;;;;;;;13.27;8.48;;;20.20;79.40;;;;;;4985762;28;20128;-76
2023/08/12 03:25:15;;;;;;;8.93;7.60;;;20.20;79.60;;;;;;5018674;28;20472;-76
2023/08/12 03:27:41;;;;;;;10.68;8.95;;;20.20;79.80;;;;;;5018130;28;20449;-76
2023/08/12 03:30:07;;;;;;;10.48;7.22;;;20.20;79.90;;;;;;4969716;28;20481;-76
2023/08/12 03:32:33;;;;;;;11.98;7.93;;;20.20;79.90;;;;;;5018480;28;20388;-76
2023/08/12 03:34:59;;;;;;;9.55;8.50;;;20.30;80.00;;;;;;5018044;28;20120;-76
2023/08/12 03:37:25;;;;;;;9.20;7.78;;;20.20;80.20;;;;;;5001756;28;20051;-76
2023/08/12 03:39:51;;;;;;;11.27;9.07;;;20.30;80.30;;;;;;5018024;28;20131;-76
2023/08/12 03:42:17;;;;;;;10.43;7.65;;;20.30;80.50;;;;;;5001598;28;20631;-77
2023/08/12 03:44:45;;;;;;;9.80;7.32;;;20.30;80.70;;;;;;5018230;28;20043;-76
2023/08/12 03:47:11;;;;;;;9.35;7.65;;;20.30;80.80;;;;;;5001489;28;20044;-76
2023/08/12 03:49:37;;;;;;;13.18;9.40;;;20.30;80.70;;;;;;5001634;28;20389;-76
2023/08/12 03:52:03;;;;;;;10.00;7.20;;;20.30;80.90;;;;;;5018142;28;20045;-77
2023/08/12 03:54:29;;;;;;;11.32;8.65;;;20.30;80.90;;;;;;4985220;28;20038;-76
2023/08/12 03:56:55;;;;;;;10.55;8.82;;;20.30;81.00;;;;;;5001455;28;20068;-76
2023/08/12 03:59:20;;;;;;;9.50;7.47;;;20.30;81.10;;;;;;5001612;28;20136;-76
2023/08/12 04:01:46;;;;;;;5.60;4.95;;;20.30;81.20;;;;;;5001478;28;20682;-76
2023/08/12 04:04:12;;;;;;;9.52;7.03;;;20.30;81.10;;;;;;5017741;28;20147;-76
2023/08/12 04:06:37;;;;;;;13.10;9.25;;;20.30;80.80;;;;;;5001153;28;20068;-77
2023/08/12 04:09:04;;;;;;;11.38;9.40;;;20.30;81.00;;;;;;5001483;28;20156;-76
2023/08/12 04:11:29;;;;;;;10.30;8.07;;;20.30;81.30;;;;;;5001166;28;20043;-76
2023/08/12 04:13:55;;;;;;;11.27;9.18;;;20.30;81.40;;;;;;5001141;28;20041;-76
2023/08/12 04:16:21;;;;;;;12.55;10.13;;;20.30;81.50;;;;;;5001110;28;20042;-76
2023/08/12 04:18:48;;;;;;;12.05;9.73;;;20.30;81.60;;;;;;5000970;28;20045;-76
2023/08/12 04:21:14;;;;;;;13.23;10.02;;;20.30;81.80;;;;;;5001470;28;20084;-76
2023/08/12 04:23:40;;;;;;;12.70;9.70;;;20.30;81.90;;;;;;5017077;28;20484;-77
2023/08/12 04:26:05;;;;;;;10.60;8.05;;;20.30;82.00;;;;;;4984629;28;20492;-76
2023/08/12 04:28:31;;;;;;;10.45;8.80;;;20.30;81.90;;;;;;5000868;28;20037;-77
2023/08/12 04:30:57;;;;;;;12.30;8.52;;;20.30;81.90;;;;;;5000892;28;20029;-77
2023/08/12 04:33:23;;;;;;;12.25;10.18;;;20.30;81.90;;;;;;5000807;28;20045;-77
2023/08/12 04:35:49;;;;;;;14.27;10.38;;;20.30;82.10;;;;;;5000783;28;20053;-77
2023/08/12 04:38:15;;;;;;;13.65;9.80;;;20.30;82.20;;;;;;5000727;28;20081;-77
2023/08/12 04:40:42;;;;;;;10.88;9.02;;;20.30;82.40;;;;;;4984463;28;20099;-76
2023/08/12 04:43:08;;;;;;;15.05;9.50;;;20.30;82.60;;;;;;5017004;28;20083;-77
2023/08/12 04:45:34;;;;;;;12.65;10.40;;;20.30;82.60;;;;;;5016837;28;20046;-77
2023/08/12 04:48:00;;;;;;;14.40;11.65;;;20.30;82.60;;;;;;5016942;28;20034;-76
2023/08/12 04:50:29;;;;;;;14.90;10.18;;;20.30;82.80;;;;;;5000665;28;20091;-76
2023/08/12 04:52:55;;;;;;;15.90;11.25;;;20.30;82.90;;;;;;4984671;28;20508;-76
2023/08/12 04:55:20;;;;;;;15.63;11.13;;;20.30;83.00;;;;;;5000364;28;20073;-77
2023/08/12 04:57:46;;;;;;;12.27;9.27;;;20.30;83.00;;;;;;5000406;28;20042;-77
2023/08/12 05:00:12;;;;;;;15.77;10.52;;;20.30;83.00;;;;;;4968061;28;20124;-76
2023/08/12 05:02:38;;;;;;;15.38;11.15;;;20.30;83.00;;;;;;5000449;28;20054;-77
2023/08/12 05:05:04;;;;;;;15.65;11.13;;;20.30;83.20;;;;;;5016549;28;20041;-76
2023/08/12 05:07:31;;;;;;;12.60;10.68;;;20.30;83.30;;;;;;5000302;28;20081;-77
2023/08/12 05:09:56;;;;;;;13.15;9.73;;;20.30;83.40;;;;;;5016678;28;20037;-77
2023/08/12 05:12:22;;;;;;;16.40;12.43;;;20.40;83.50;;;;;;5015789;28;20643;-77
2023/08/12 05:14:48;;;;;;;16.17;11.75;;;20.40;83.60;;;;;;5000242;28;20127;-77
2023/08/12 05:17:14;;;;;;;19.17;13.02;;;20.40;83.70;;;;;;4967944;28;20064;-76
2023/08/12 05:19:39;;;;;;;17.35;12.10;;;20.40;83.90;;;;;;5016346;28;20045;-76
2023/08/12 05:22:05;;;;;;;10.52;9.02;;;20.40;84.00;;;;;;4999669;28;20071;-76
2023/08/12 05:24:31;;;;;;;14.57;10.25;;;20.40;84.00;;;;;;4967703;28;20064;-77
2023/08/12 05:26:56;;;;;;;17.60;12.82;;;20.40;83.90;;;;;;4983695;28;20393;-76
2023/08/12 05:29:22;;;;;;;17.70;12.32;;;20.50;84.10;;;;;;4983642;28;20047;-76
2023/08/12 05:31:48;;;;;;;16.58;12.82;;;20.50;84.30;;;;;;5000057;28;20099;-77
2023/08/12 05:34:13;;;;;;;17.13;11.52;;;20.50;84.30;;;;;;4999655;28;20477;-77
2023/08/12 05:36:39;;;;;;;17.42;13.68;;;20.50;84.30;;;;;;5016229;28;20041;-77
2023/08/12 05:39:05;;;;;;;20.08;13.18;;;20.50;84.40;;;;;;4983343;28;20053;-76
2023/08/12 05:41:31;;;;;;;18.65;14.98;;;20.60;84.50;;;;;;4999624;28;20088;-77
2023/08/12 05:43:57;;;;;;;18.70;14.32;;;20.60;84.60;;;;;;5015820;28;20041;-77
2023/08/12 05:46:22;;;;;;;19.48;14.63;;;20.60;84.70;;;;;;4999535;28;20114;-77
2023/08/12 05:48:48;;;;;;;21.27;15.18;;;20.60;84.70;;;;;;5015720;28;20044;-76
2023/08/12 05:51:14;;;;;;;19.75;15.15;;;20.60;84.70;;;;;;4999292;28;20037;-77
2023/08/12 05:53:39;;;;;;;18.30;13.52;;;20.60;84.80;;;;;;4999728;28;20037;-77
2023/08/12 05:56:05;;;;;;;23.88;15.95;;;20.60;84.80;;;;;;4999687;28;20049;-77
2023/08/12 05:58:31;;;;;;;16.08;13.85;;;20.60;84.80;;;;;;4999407;28;20492;-77
2023/08/12 06:00:56;;;;;;;21.25;16.55;;;20.70;84.90;;;;;;5015647;28;20404;-77
2023/08/12 06:03:22;;;;;;;18.20;15.13;;;20.70;85.00;;;;;;5015661;28;20053;-77
2023/08/12 06:05:48;;;;;;;21.25;15.90;;;20.70;85.00;;;;;;4999072;28;20049;-77
2023/08/12 06:08:14;;;;;;;20.02;15.82;;;20.70;85.00;;;;;;5016047;28;20076;-77
2023/08/12 06:10:40;;;;;;;18.52;14.60;;;20.70;85.00;;;;;;4999128;28;20611;-77
2023/08/12 06:13:06;;;;;;;24.50;18.73;;;20.80;85.10;;;;;;4999070;28;20147;-77
2023/08/12 06:15:35;;;;;;;24.00;17.98;;;20.80;85.10;;;;;;4999156;28;20048;-77
2023/08/12 06:18:01;;;;;;;21.10;17.10;;;20.80;85.10;;;;;;5015198;28;20072;-77
2023/08/12 06:20:27;;;;;;;22.17;18.67;;;20.80;85.10;;;;;;4999268;28;20045;-77
2023/08/12 06:22:53;;;;;;;23.27;17.75;;;20.80;85.10;;;;;;5014676;28;20489;-77
2023/08/12 06:25:19;;;;;;;24.08;18.70;;;20.80;85.10;;;;;;5015322;28;20046;-77
2023/08/12 06:27:47;;;;;;;20.02;17.25;;;20.80;85.10;;;;;;5015581;28;20045;-77
2023/08/12 06:30:13;;;;;;;20.25;16.10;;;20.90;85.20;;;;;;4998994;28;20515;-77
2023/08/12 06:32:39;;;;;;;24.30;18.95;;;20.90;85.20;;;;;;4999137;28;20485;-77
2023/08/12 06:35:05;;;;;;;20.92;17.63;;;20.90;85.20;;;;;;5015105;28;20128;-78
2023/08/12 06:37:31;;;;;;;24.95;19.33;;;20.90;85.20;;;;;;5015223;28;20493;-78
2023/08/12 06:39:57;;;;;;;22.60;16.60;;;20.90;85.10;;;;;;5015476;28;20113;-78
2023/08/12 06:42:23;;;;;;;21.27;17.45;;;21.00;85.20;;;;;;5015532;28;20049;-78
2023/08/12 06:44:57;;;;;;;21.85;16.77;;;21.00;85.10;;;;;;5015366;28;20103;-78
2023/08/12 06:47:22;;;;;;;;;;;21.00;85.50;;;;;;5032299;28;20053;-78
2023/08/12 06:49:48;;;;;;;21.48;18.20;;;21.00;84.60;;;;;;5035241;28;20003;-78
2023/08/12 06:52:15;;;;;;;19.80;16.17;;;21.00;84.90;;;;;;5034867;28;20048;-78
2023/08/12 06:54:41;;;;;;;21.70;17.33;;;21.00;85.00;;;;;;5034806;28;20047;-77
2023/08/12 06:57:07;;;;;;;22.20;18.70;;;21.00;85.00;;;;;;5034788;28;20037;-77
2023/08/12 06:59:33;;;;;;;22.02;19.02;;;21.10;85.10;;;;;;5018467;28;20037;-77
2023/08/12 07:01:58;;;;;;;20.65;17.77;;;21.10;85.20;;;;;;5018348;28;20067;-77
2023/08/12 07:04:25;;;;;;;20.48;17.00;;;21.10;85.20;;;;;;5018379;28;20084;-77
2023/08/12 07:06:51;;;;;;;20.10;16.75;;;21.10;85.10;;;;;;5018443;28;20442;-77
2023/08/12 07:09:16;;;;;;;23.08;19.48;;;21.10;85.00;;;;;;5017973;28;20036;-77
2023/08/12 07:11:42;;;;;;;24.55;19.60;;;21.20;85.10;;;;;;5001903;28;20036;-78
2023/08/12 07:14:08;;;;;;;21.35;19.05;;;21.20;85.10;;;;;;5018156;28;20041;-78
2023/08/12 07:16:33;;;;;;;21.42;18.15;;;21.20;85.20;;;;;;5018444;28;20040;-77
2023/08/12 07:18:59;;;;;;;24.45;19.80;;;21.20;85.10;;;;;;5018581;28;20053;-78
2023/08/12 07:21:25;;;;;;;24.33;19.90;;;21.20;85.20;;;;;;5018422;28;20554;-77
2023/08/12 07:23:50;;;;;;;24.40;21.15;;;21.30;85.40;;;;;;5034552;28;20057;-77
2023/08/12 07:26:16;;;;;;;23.65;20.92;;;21.30;85.50;;;;;;4985700;28;20094;-77
2023/08/12 07:28:42;;;;;;;22.13;18.92;;;21.30;85.50;;;;;;5018146;28;20068;-77
2023/08/12 07:31:08;;;;;;;22.02;19.00;;;21.30;85.40;;;;;;5034542;28;20041;-78
2023/08/12 07:33:34;;;;;;;23.75;20.05;;;21.40;85.50;;;;;;5034479;28;20048;-77
2023/08/12 07:36:00;;;;;;;22.90;20.13;;;21.40;85.50;;;;;;5021354;28;20041;-77
2023/08/12 07:38:25;;;;;;;22.20;18.80;;;21.40;85.50;;;;;;5021582;28;20048;-78
2023/08/12 07:40:51;;;;;;;25.73;20.10;;;21.40;85.30;;;;;;5038451;28;20059;-78
2023/08/12 07:43:17;;;;;;;24.58;19.92;;;21.40;85.20;;;;;;5037983;28;20502;-78
2023/08/12 07:45:43;;;;;;;27.05;20.92;;;21.50;85.20;;;;;;5038452;28;20129;-78
2023/08/12 07:48:09;;;;;;;21.98;19.45;;;21.40;84.90;;;;;;5005351;28;20494;-78
2023/08/12 07:50:34;;;;;;;24.13;20.88;;;21.40;84.90;;;;;;5037828;28;20037;-78
2023/08/12 07:53:00;;;;;;;24.08;20.63;;;21.40;84.90;;;;;;5037935;28;20037;-77
2023/08/12 07:55:27;;;;;;;27.23;21.10;;;21.40;84.90;;;;;;5021521;28;20105;-77
2023/08/12 07:57:53;;;;;;;25.90;20.13;;;21.40;85.30;;;;;;5037855;28;20072;-77
2023/08/12 08:00:19;;;;;;;25.63;20.48;;;21.40;84.80;;;;;;5005028;28;20134;-77
2023/08/12 08:02:45;;;;;;;24.15;20.70;;;21.40;84.80;;;;;;5021771;28;20048;-77
2023/08/12 08:05:10;;;;;;;21.98;18.63;;;21.40;85.20;;;;;;5020997;28;20048;-77
2023/08/12 08:07:36;;;;;;;23.73;19.75;;;21.40;84.90;;;;;;5036999;28;20064;-78
2023/08/12 08:10:02;;;;;;;26.88;21.33;;;21.40;85.00;;;;;;4989061;28;20498;-78
2023/08/12 08:12:28;;;;;;;27.50;22.05;;;21.40;85.20;;;;;;5037737;28;20088;-79
2023/08/12 08:14:54;;;;;;;24.17;21.58;;;21.40;85.30;;;;;;5021128;28;20045;-80
2023/08/12 08:17:19;;;;;;;24.83;21.38;;;21.40;85.40;;;;;;5021217;28;20044;-80
2023/08/12 08:19:45;;;;;;;25.30;21.23;;;21.40;85.60;;;;;;5037577;28;20055;-80
2023/08/12 08:22:11;;;;;;;28.50;21.95;;;21.40;85.60;;;;;;5037186;28;20061;-80
2023/08/12 08:24:36;;;;;;;28.88;22.80;;;21.30;86.10;;;;;;5037435;28;20045;-80
2023/08/12 08:27:04;;;;;;;23.73;21.20;;;21.30;85.90;;;;;;5020850;28;20040;-80
2023/08/12 08:29:30;;;;;;;27.85;21.80;;;21.20;85.90;;;;;;4988723;28;20388;-80
2023/08/12 08:31:56;;;;;;;25.30;20.17;;;21.20;86.00;;;;;;5020297;28;20045;-79
2023/08/12 08:34:21;;;;;;;21.38;18.35;;;21.20;86.20;;;;;;5020311;28;20041;-79
2023/08/12 08:36:47;;;;;;;23.23;19.33;;;21.10;86.10;;;;;;5020538;28;20094;-79
2023/08/12 08:39:13;;;;;;;21.38;18.67;;;21.10;86.40;;;;;;5020178;28;20037;-79
2023/08/12 08:41:39;;;;;;;19.08;17.08;;;21.10;86.60;;;;;;5036715;28;20052;-79
2023/08/12 08:44:08;;;;;;;20.70;17.73;;;21.00;86.70;;;;;;5020518;28;20053;-79
2023/08/12 08:46:34;;;;;;;19.50;16.75;;;21.00;86.90;;;;;;5019771;28;20047;-79
2023/08/12 08:49:03;;;;;;;17.20;15.30;;;21.00;86.90;;;;;;5036808;28;20101;-79
2023/08/12 08:51:32;;;;;;;15.20;13.40;;;21.00;87.00;;;;;;5036656;28;20120;-80
2023/08/12 08:53:58;;;;;;;16.40;13.95;;;21.00;87.10;;;;;;5037064;28;20051;-79
2023/08/12 08:56:24;;;;;;;13.63;11.90;;;21.00;87.20;;;;;;5020549;28;20131;-80
2023/08/12 08:58:50;;;;;;;11.55;8.63;;;21.00;87.30;;;;;;5036806;28;20037;-80
2023/08/12 09:01:19;;;;;;;10.85;8.55;;;21.00;87.10;;;;;;5036595;28;20132;-81
2023/08/12 09:03:46;;;;;;;9.32;7.63;;;21.00;87.00;;;;;;5036673;28;20045;-81
2023/08/12 09:06:12;;;;;;;11.30;7.70;;;21.00;87.00;;;;;;5020240;28;20491;-81
2023/08/12 09:08:44;;;;;;;10.57;7.35;;;21.00;86.90;;;;;;5020304;28;20072;-80
2023/08/12 09:11:12;;;;;;;10.95;7.35;;;21.00;86.90;;;;;;5036534;28;20041;-80
2023/08/12 09:13:38;;;;;;;8.00;6.63;;;21.00;86.90;;;;;;5036485;28;20083;-80
2023/08/12 09:16:04;;;;;;;7.82;6.85;;;21.00;86.90;;;;;;5036385;28;20080;-80
2023/08/12 09:18:30;;;;;;;6.95;5.57;;;21.00;86.90;;;;;;5036797;28;20080;-80
2023/08/12 09:20:56;;;;;;;8.68;7.03;;;21.00;87.00;;;;;;5036469;28;20083;-81
2023/08/12 09:23:22;;;;;;;6.85;5.78;;;21.10;86.80;;;;;;5003493;28;20061;-81
2023/08/12 09:25:48;;;;;;;6.53;5.38;;;21.10;86.70;;;;;;5020179;28;20080;-81
2023/08/12 09:28:14;;;;;;;8.35;5.63;;;21.10;86.70;;;;;;5019784;28;20037;-81
2023/08/12 09:30:40;;;;;;;6.65;5.60;;;21.10;86.80;;;;;;5036109;28;20511;-81
2023/08/12 09:33:08;;;;;;;6.28;5.32;;;21.10;86.70;;;;;;5035886;28;20052;-80
2023/08/12 09:35:34;;;;;;;5.55;4.60;;;21.10;86.70;;;;;;5019537;28;20543;-80
2023/08/12 09:38:21;;;;;;;6.32;4.72;;;21.10;86.70;;;;;;5019478;28;20052;-80
2023/08/12 09:40:47;;;;;;;6.50;5.35;;;21.10;86.50;;;;;;5003534;28;20460;-80
2023/08/12 09:43:13;;;;;;;5.63;4.65;;;21.10;86.70;;;;;;5019643;28;20045;-80
2023/08/12 09:45:39;;;;;;;5.32;4.75;;;21.10;86.60;;;;;;5003510;28;20159;-80
2023/08/12 09:48:07;;;;;;;5.03;4.13;;;21.10;86.70;;;;;;5003265;28;20434;-80
2023/08/12 09:50:33;;;;;;;5.28;4.40;;;21.10;86.80;;;;;;5019359;28;20484;-80
2023/08/12 09:53:01;;;;;;;4.45;3.53;;;21.10;86.70;;;;;;5019387;28;20043;-80
2023/08/12 09:55:28;;;;;;;3.85;3.33;;;21.10;86.50;;;;;;5003180;28;20384;-80
2023/08/12 09:57:56;;;;;;;5.18;3.70;;;21.20;86.10;;;;;;5019465;28;20053;-80
2023/08/12 10:00:23;;;;;;;3.42;2.80;;;21.20;85.70;;;;;;5035673;28;20045;-80
2023/08/12 10:02:51;;;;;;;3.03;2.40;;;21.20;85.50;;;;;;5018536;28;20044;-80
2023/08/12 10:05:27;;;;;;;3.17;2.67;;;21.20;85.30;;;;;;5034955;28;20041;-80
2023/08/12 10:07:54;;;;;;;3.03;2.53;;;21.20;85.00;;;;;;5018542;28;20095;-80
2023/08/12 10:10:22;;;;;;;3.03;2.30;;;21.20;85.00;;;;;;5018587;28;20034;-80
2023/08/12 10:12:48;;;;;;;3.00;1.90;;;21.30;84.90;;;;;;5018887;28;20049;-80
2023/08/12 10:15:14;;;;;;;3.65;2.20;;;21.30;85.00;;;;;;5036213;28;20090;-81
2023/08/12 10:17:44;;;;;;;3.97;2.50;;;21.30;84.90;;;;;;5035492;28;20037;-81
2023/08/12 10:20:13;;;;;;;3.78;2.22;;;21.30;84.70;;;;;;5003236;28;20044;-80
2023/08/12 10:22:40;;;;;;;3.53;2.72;;;21.40;85.10;;;;;;5002776;28;20061;-81
2023/08/12 10:25:11;;;;;;;3.67;2.15;;;21.40;85.30;;;;;;5002968;28;20128;-81
2023/08/12 10:27:37;;;;;;;2.58;2.25;;;21.50;85.50;;;;;;5018985;28;20055;-80
2023/08/12 10:30:10;;;;;;;3.75;1.83;;;21.50;85.40;;;;;;5019201;28;20171;-81
2023/08/12 10:32:36;;;;;;;3.08;2.30;;;21.50;85.30;;;;;;5003162;28;20127;-81
2023/08/12 10:35:02;;;;;;;3.15;2.00;;;21.60;85.30;;;;;;5019341;28;20392;-81
2023/08/12 10:37:32;;;;;;;3.35;2.25;;;21.60;84.90;;;;;;5019029;28;20047;-81
2023/08/12 10:39:58;;;;;;;2.53;2.10;;;21.70;84.60;;;;;;5019254;28;20099;-79
2023/08/12 10:42:43;;;;;;;2.60;1.98;;;21.70;84.40;;;;;;5018742;28;20484;-78
2023/08/12 10:45:10;;;;;;;2.47;1.70;;;21.70;84.00;;;;;;5002706;28;20049;-78
2023/08/12 10:47:41;;;;;;;3.25;2.33;;;21.80;84.10;;;;;;5035011;28;20060;-78
2023/08/12 10:50:17;;;;;;;2.63;1.90;;;21.80;84.20;;;;;;5035003;28;20049;-78
2023/08/12 10:52:45;;;;;;;3.08;1.80;;;21.80;83.90;;;;;;5018872;28;20041;-78
2023/08/12 10:55:23;;;;;;;2.70;1.85;;;21.80;84.00;;;;;;4986875;28;20419;-78
2023/08/12 10:57:51;;;;;;;2.53;1.90;;;21.90;84.10;;;;;;5018483;28;20041;-79
2023/08/12 11:00:21;;;;;;;2.65;1.60;;;21.90;84.00;;;;;;5034974;28;20045;-78
2023/08/12 11:02:56;;;;;;;2.00;1.00;;;22.00;83.60;;;;;;5018445;28;20040;-79
2023/08/12 11:05:22;;;;;;;2.80;1.65;;;22.00;83.20;;;;;;5034891;28;20033;-78
2023/08/12 11:08:00;;;;;;;1.55;1.00;;;22.00;83.00;;;;;;5018547;28;20541;-78
2023/08/12 11:10:27;;;;;;;3.22;2.42;;;22.00;82.70;;;;;;5037545;28;20074;-79
2023/08/12 11:12:55;;;;;;;2.75;1.40;;;22.00;82.30;;;;;;5006256;28;20041;-78
2023/08/12 11:15:46;;;;;;;4.35;2.80;;;22.10;82.00;;;;;;5038723;28;20071;-78
2023/08/12 11:18:17;;;;;;;3.60;3.05;;;22.10;81.30;;;;;;5022404;28;20043;-78
2023/08/12 11:20:43;;;;;;;3.85;1.70;;;22.10;81.30;;;;;;5022477;28;20475;-78
2023/08/12 11:23:09;;;;;;;2.97;2.30;;;22.10;80.90;;;;;;5022022;28;20075;-78
2023/08/12 11:25:37;;;;;;;4.85;4.25;;;22.10;80.20;;;;;;5006008;28;20428;-78
2023/08/12 11:28:04;;;;;;;6.53;5.45;;;22.10;79.40;;;;;;5021838;28;20041;-79
2023/08/12 11:30:30;;;;;;;5.30;3.90;;;22.00;78.60;;;;;;5021895;28;20127;-79
2023/08/12 11:32:57;;;;;;;5.78;3.33;;;22.00;78.20;;;;;;5021998;28;20486;-78
2023/08/12 11:35:24;;;;;;;5.50;3.13;;;21.90;77.90;;;;;;5005228;28;20056;-79
2023/08/12 11:37:56;;;;;;;5.00;3.03;;;21.90;77.90;;;;;;5021945;28;20069;-79
2023/08/12 11:40:23;;;;;;;4.85;3.20;;;21.90;77.80;;;;;;5038335;28;20128;-79
2023/08/12 11:42:49;;;;;;;5.43;3.28;;;21.80;77.80;;;;;;5005489;28;20044;-78
2023/08/12 11:45:26;;;;;;;4.15;2.65;;;21.80;77.70;;;;;;5021606;28;20048;-79
2023/08/12 11:47:53;;;;;;;4.40;2.78;;;21.80;77.50;;;;;;5021391;28;20037;-79
2023/08/12 11:50:20;;;;;;;5.85;3.53;;;21.80;77.80;;;;;;5037923;28;20045;-79
2023/08/12 11:52:47;;;;;;;6.68;3.22;;;21.80;77.70;;;;;;5037940;28;20074;-76
2023/08/12 11:55:13;;;;;;;5.47;2.90;;;21.80;77.60;;;;;;5021388;28;20073;-79
2023/08/12 11:57:43;;;;;;;6.07;3.45;;;21.90;77.30;;;;;;5021295;28;20036;-79
2023/08/12 12:00:14;;;;;;;5.90;3.58;;;21.90;77.00;;;;;;5021329;28;20045;-79
2023/08/12 12:02:50;;;;;;;5.53;3.10;;;21.90;77.10;;;;;;5021431;28;20040;-79
2023/08/12 12:05:17;;;;;;;5.53;2.92;;;21.90;77.10;;;;;;5022872;28;20135;-79
2023/08/12 12:07:46;;;;;;;6.22;2.80;;;22.00;77.30;;;;;;5021145;28;20400;-79
2023/08/12 12:10:27;;;;;;;4.53;2.08;;;22.00;77.30;;;;;;5005046;28;20044;-79
2023/08/12 12:12:54;;;;;;;6.75;2.65;;;22.10;77.60;;;;;;5037474;28;20037;-79
2023/08/12 12:15:20;;;;;;;4.10;2.80;;;22.20;77.40;;;;;;5037375;28;20041;-79
2023/08/12 12:17:47;;;;;;;5.95;2.95;;;22.20;77.50;;;;;;5037489;28;20037;-78
2023/08/12 12:20:14;;;;;;;4.55;2.70;;;22.30;77.30;;;;;;5037726;28;20063;-79
2023/08/12 12:22:43;;;;;;;6.00;2.47;;;22.40;77.00;;;;;;5033829;28;20053;-78
2023/08/12 12:25:11;;;;;;;4.47;1.98;;;22.40;76.60;;;;;;5017492;28;20061;-78
2023/08/12 12:27:39;;;;;;;5.88;2.10;;;22.50;75.70;;;;;;5017295;28;20052;-78
2023/08/12 12:30:07;;;;;;;7.80;2.38;;;22.60;75.40;;;;;;5034062;28;20047;-78
2023/08/12 12:32:34;;;;;;;4.55;2.22;;;22.70;75.20;;;;;;5034054;28;20056;-77
2023/08/12 12:34:59;;;;;;;4.03;1.98;;;22.80;75.00;;;;;;5017095;28;20037;-77
2023/08/12 12:37:25;;;;;;;4.65;2.00;;;22.90;74.50;;;;;;5033794;28;20045;-77